Poseyville, Indiana
Current Conditions -  °F | °C
As of 11:54 AM on Saturday 20 Dec 2014 (Local Time) from KEVV Reporting Station
Overcast Overcast  
Wind Chill: 36°   Ceiling: 7000
Heat Index: 36°   Visibility: 10mi
Dew Point: 27°   Wind: 3mph
Humidity: 70%   Direction: 60°ENE
Pressure: 30.3"   Gusts: NA
Location:  38.17°N, 87.78°W
Report Text: KEVV 201754Z 06003KT 10SM OVC070 02/M03 A3030 RMK AO2 SLP265 T00221028 10022 20000 58005
Loading
Personal Weather Stations






























Interactive Weather Map New forecast layout! Learn more

10-Day Weather Forecast

Advertisements
Track Severe Weather on mobile